createdAt,value
2019-05-03T00:02:28.320Z,99.90
2019-05-03T00:05:26.253Z,99.90
2019-05-03T00:07:59.814Z,99.90
2019-05-03T00:10:27.364Z,99.90
2019-05-03T00:12:54.807Z,99.90
2019-05-03T00:15:32.688Z,99.90
2019-05-03T00:18:00.035Z,99.90
2019-05-03T00:20:27.387Z,99.90
2019-05-03T00:22:54.566Z,99.90
2019-05-03T00:25:22.220Z,99.90
2019-05-03T00:27:49.478Z,99.90
2019-05-03T00:30:16.992Z,99.90
2019-05-03T00:32:44.333Z,99.90
2019-05-03T00:35:25.277Z,99.90
2019-05-03T00:37:54.437Z,99.90
2019-05-03T00:40:32.389Z,99.90
2019-05-03T00:42:59.898Z,99.90
2019-05-03T00:45:27.169Z,99.90
2019-05-03T00:47:54.561Z,99.90
2019-05-03T00:50:22.662Z,99.90
2019-05-03T00:52:51.552Z,99.90
2019-05-03T00:55:19.384Z,99.90
2019-05-03T00:57:46.869Z,99.90
2019-05-03T01:00:14.813Z,99.90
2019-05-03T01:02:42.422Z,99.90
2019-05-03T01:05:11.822Z,99.90
2019-05-03T01:07:39.008Z,99.90
2019-05-03T01:10:08.220Z,99.90
2019-05-03T01:12:35.491Z,99.90
2019-05-03T01:15:05.718Z,99.90
2019-05-03T01:17:35.401Z,99.90
2019-05-03T01:20:04.283Z,99.90
2019-05-03T01:22:32.251Z,99.90
2019-05-03T01:24:59.700Z,99.90
2019-05-03T01:27:26.999Z,99.90
2019-05-03T01:29:54.133Z,99.90
2019-05-03T01:32:22.261Z,99.90
2019-05-03T01:34:49.833Z,99.90
2019-05-03T01:37:17.188Z,99.90
2019-05-03T01:39:44.344Z,99.90
2019-05-03T01:42:11.991Z,99.90
2019-05-03T01:44:39.385Z,99.90
2019-05-03T01:47:11.533Z,99.90
2019-05-03T01:49:51.952Z,99.90
2019-05-03T01:52:29.236Z,99.90
2019-05-03T01:54:56.559Z,99.90
2019-05-03T01:57:23.703Z,99.90
2019-05-03T01:59:52.080Z,99.90
2019-05-03T02:02:52.528Z,99.90
2019-05-03T02:05:39.390Z,99.90
2019-05-03T02:08:06.853Z,99.90
2019-05-03T02:10:34.096Z,99.90
2019-05-03T02:13:01.705Z,99.90
2019-05-03T02:15:29.178Z,99.90
2019-05-03T02:17:56.428Z,99.90
2019-05-03T02:20:23.596Z,99.90
2019-05-03T02:22:52.184Z,99.90
2019-05-03T02:25:21.642Z,99.90
2019-05-03T02:27:48.746Z,99.90
2019-05-03T02:30:16.209Z,99.90
2019-05-03T02:32:44.130Z,99.90
2019-05-03T02:35:13.949Z,99.90
2019-05-03T02:37:44.058Z,99.90
2019-05-03T02:40:12.976Z,99.90
2019-05-03T02:42:46.144Z,99.90
2019-05-03T02:45:20.768Z,99.90
2019-05-03T02:47:55.580Z,99.90
2019-05-03T02:50:25.776Z,99.90
2019-05-03T02:52:51.868Z,99.90
2019-05-03T02:55:19.442Z,99.90
2019-05-03T02:57:46.999Z,99.90
2019-05-03T03:00:16.527Z,99.90
2019-05-03T03:02:45.640Z,99.90
2019-05-03T03:05:16.313Z,99.90
2019-05-03T03:07:46.163Z,99.90
2019-05-03T03:10:16.146Z,99.90
2019-05-03T03:12:46.958Z,99.90
2019-05-03T03:15:16.308Z,99.90
2019-05-03T03:17:46.304Z,99.90
2019-05-03T03:20:16.159Z,99.90
2019-05-03T03:22:45.783Z,99.90
2019-05-03T03:25:21.289Z,99.90
2019-05-03T03:27:51.645Z,99.90
2019-05-03T03:31:17.301Z,99.90
2019-05-03T03:33:47.117Z,99.90
2019-05-03T03:36:42.186Z,99.90
2019-05-03T03:38:45.771Z,99.90
2019-05-03T03:41:16.287Z,99.90
2019-05-03T03:43:46.346Z,99.90
2019-05-03T03:46:16.252Z,99.90
2019-05-03T03:48:46.099Z,99.90
2019-05-03T03:51:16.757Z,99.90
2019-05-03T03:53:46.496Z,99.90
2019-05-03T03:56:18.497Z,99.90
2019-05-03T03:58:47.921Z,99.90
2019-05-03T04:01:26.380Z,99.90
2019-05-03T04:03:52.592Z,99.90
2019-05-03T04:06:22.404Z,99.90
2019-05-03T04:09:01.051Z,99.90
2019-05-03T04:11:28.694Z,99.90
2019-05-03T04:13:56.178Z,99.90
2019-05-03T04:16:36.440Z,99.90
2019-05-03T04:19:12.691Z,99.90
2019-05-03T04:21:40.194Z,99.90
2019-05-03T04:24:08.356Z,99.90
2019-05-03T04:26:36.397Z,99.90
2019-05-03T04:29:05.352Z,99.90
2019-05-03T04:31:32.847Z,99.90
2019-05-03T04:34:00.010Z,99.90
2019-05-03T04:36:27.503Z,99.90
2019-05-03T04:38:56.207Z,99.90
2019-05-03T04:41:26.859Z,99.90
2019-05-03T04:43:55.379Z,99.90
2019-05-03T04:46:25.981Z,99.90
2019-05-03T04:48:55.901Z,99.90
2019-05-03T04:51:22.262Z,99.90
2019-05-03T04:53:56.083Z,99.90
2019-05-03T04:56:25.154Z,99.90
2019-05-03T04:58:52.532Z,99.90
2019-05-03T05:01:19.887Z,99.90
2019-05-03T05:03:47.273Z,99.90
2019-05-03T05:06:15.444Z,99.90
2019-05-03T05:08:46.096Z,99.90
2019-05-03T05:11:15.835Z,99.90
2019-05-03T05:13:51.748Z,99.90
2019-05-03T05:16:19.067Z,99.90
2019-05-03T05:18:51.606Z,99.90
2019-05-03T05:21:38.946Z,99.90
2019-05-03T05:24:06.373Z,99.90
2019-05-03T05:26:58.052Z,99.90
2019-05-03T05:29:27.557Z,99.90
2019-05-03T05:31:55.621Z,99.90
2019-05-03T05:34:24.565Z,99.90
2019-05-03T05:36:52.004Z,99.90
2019-05-03T05:39:19.368Z,99.90
2019-05-03T05:41:46.622Z,99.90
2019-05-03T05:44:14.473Z,99.90
2019-05-03T05:47:01.476Z,99.90
2019-05-03T05:49:41.943Z,99.90
2019-05-03T05:52:09.215Z,99.90
2019-05-03T05:54:38.487Z,99.90
2019-05-03T05:57:25.741Z,99.90
2019-05-03T05:59:59.314Z,99.90
2019-05-03T06:02:26.783Z,99.90
2019-05-03T06:04:54.410Z,99.90
2019-05-03T06:07:39.452Z,99.90
2019-05-03T06:10:25.972Z,99.90
2019-05-03T06:13:10.766Z,99.90
2019-05-03T06:15:44.849Z,99.90
2019-05-03T06:18:17.734Z,99.90
2019-05-03T06:21:01.678Z,99.90
2019-05-03T06:23:39.476Z,99.90
2019-05-03T06:26:26.388Z,99.90
2019-05-03T06:28:54.495Z,99.90
2019-05-03T06:31:29.051Z,99.90
2019-05-03T06:33:56.210Z,99.90
2019-05-03T06:36:24.348Z,99.90
2019-05-03T06:38:51.847Z,99.90
2019-05-03T06:41:19.111Z,99.90
2019-05-03T06:43:48.786Z,99.90
2019-05-03T06:46:18.246Z,99.90
2019-05-03T06:48:44.939Z,99.90
2019-05-03T06:51:17.877Z,99.90
2019-05-03T06:53:41.885Z,99.90
2019-05-03T06:56:10.643Z,99.90
2019-05-03T06:58:37.891Z,99.90
2019-05-03T07:01:25.301Z,99.90
2019-05-03T07:04:10.159Z,99.90
2019-05-03T07:06:47.938Z,99.90
2019-05-03T07:09:35.432Z,99.90
2019-05-03T07:12:04.505Z,99.90
2019-05-03T07:14:35.697Z,99.90
2019-05-03T07:17:05.369Z,99.90
2019-05-03T07:19:32.180Z,99.90
2019-05-03T07:21:59.326Z,99.90
2019-05-03T07:24:26.581Z,99.90
2019-05-03T07:26:55.141Z,99.90
2019-05-03T07:29:22.569Z,99.90
2019-05-03T07:31:49.738Z,99.90
2019-05-03T07:34:16.971Z,99.90
2019-05-03T07:36:44.634Z,99.90
2019-05-03T07:39:14.034Z,99.90
2019-05-03T07:41:41.349Z,99.90
2019-05-03T07:44:08.494Z,99.90
2019-05-03T07:46:35.857Z,99.90
2019-05-03T07:49:05.064Z,99.90
2019-05-03T07:51:34.850Z,99.90
2019-05-03T07:54:02.133Z,99.90
2019-05-03T07:56:36.483Z,99.90
2019-05-03T07:59:06.431Z,99.90
2019-05-03T08:01:47.055Z,99.90
2019-05-03T08:04:15.396Z,99.90
2019-05-03T08:06:44.598Z,99.90
2019-05-03T08:09:12.190Z,99.90
2019-05-03T08:11:39.579Z,99.90
2019-05-03T08:14:07.564Z,99.90
2019-05-03T08:16:35.284Z,99.90
2019-05-03T08:19:04.932Z,99.90
2019-05-03T08:21:37.475Z,99.90
2019-05-03T08:24:04.503Z,99.90
2019-05-03T08:26:31.951Z,99.90
2019-05-03T08:28:59.120Z,99.90
2019-05-03T08:31:48.642Z,99.90
2019-05-03T08:34:27.884Z,99.90
2019-05-03T08:36:57.724Z,99.90
2019-05-03T08:39:25.439Z,99.90
2019-05-03T08:41:58.843Z,99.90
2019-05-03T08:44:28.727Z,99.90
2019-05-03T08:46:56.782Z,99.90
2019-05-03T08:49:25.517Z,99.90
2019-05-03T08:51:54.943Z,99.90
2019-05-03T08:54:22.869Z,99.90
2019-05-03T08:56:50.171Z,99.90
2019-05-03T08:59:28.782Z,99.90
2019-05-03T09:01:46.934Z,99.90
2019-05-03T09:04:15.459Z,99.80
2019-05-03T09:06:44.596Z,99.60
2019-05-03T09:09:25.489Z,99.20
2019-05-03T09:11:52.955Z,99.90
2019-05-03T09:14:20.316Z,99.90
2019-05-03T09:16:47.491Z,99.90
2019-05-03T09:19:14.971Z,99.90
2019-05-03T09:21:42.215Z,98.70
2019-05-03T09:24:09.582Z,98.50
2019-05-03T09:26:36.861Z,99.20
2019-05-03T09:29:05.539Z,99.90
2019-05-03T09:31:32.887Z,99.90
2019-05-03T09:34:00.044Z,99.50
2019-05-03T09:36:27.392Z,98.00
2019-05-03T09:38:55.027Z,99.90
2019-05-03T09:41:22.388Z,99.20
2019-05-03T09:43:49.540Z,99.20
2019-05-03T09:46:16.894Z,96.40
2019-05-03T09:48:45.315Z,97.50
2019-05-03T09:51:14.751Z,95.70
2019-05-03T09:53:50.356Z,96.20
2019-05-03T09:56:20.402Z,94.60
2019-05-03T09:58:47.761Z,94.00
2019-05-03T10:01:15.207Z,94.60
2019-05-03T10:03:42.597Z,94.60
2019-05-03T10:06:09.845Z,91.60
2019-05-03T10:08:37.008Z,91.00
2019-05-03T10:11:10.192Z,91.60
2019-05-03T10:13:41.454Z,91.30
2019-05-03T10:16:07.469Z,93.30
2019-05-03T10:18:35.370Z,92.80
2019-05-03T10:21:05.085Z,89.10
2019-05-03T10:23:49.854Z,89.70
2019-05-03T10:26:17.213Z,90.10
2019-05-03T10:28:44.567Z,88.00
2019-05-03T10:31:12.023Z,87.40
2019-05-03T10:34:05.846Z,86.80
2019-05-03T10:36:35.499Z,87.40
2019-05-03T10:39:04.857Z,83.30
2019-05-03T10:41:34.629Z,79.30
2019-05-03T10:44:01.797Z,68.10
2019-05-03T10:46:28.941Z,67.50
2019-05-03T10:48:56.321Z,69.70
2019-05-03T10:51:26.490Z,70.60
2019-05-03T10:53:57.229Z,71.70
2019-05-03T10:56:31.843Z,71.20
2019-05-03T10:59:06.017Z,72.90
2019-05-03T11:01:41.612Z,71.30
2019-05-03T11:04:08.780Z,71.20
2019-05-03T11:06:36.158Z,75.40
2019-05-03T11:09:05.732Z,73.00
2019-05-03T11:11:35.194Z,73.50
2019-05-03T11:14:05.224Z,71.30
2019-05-03T11:16:31.943Z,74.90
2019-05-03T11:18:59.218Z,74.90
2019-05-03T11:21:28.869Z,75.30
2019-05-03T11:23:55.515Z,76.20
2019-05-03T11:26:25.126Z,73.80
2019-05-03T11:28:51.827Z,69.90
2019-05-03T11:31:37.581Z,68.50
2019-05-03T11:34:15.139Z,70.50
2019-05-03T11:37:17.117Z,71.90
2019-05-03T11:39:45.217Z,70.10
2019-05-03T11:42:12.601Z,67.30
2019-05-03T11:44:39.864Z,67.60
2019-05-03T11:47:08.044Z,65.30
2019-05-03T11:49:35.518Z,66.60
2019-05-03T11:52:03.378Z,64.10
2019-05-03T11:54:30.616Z,63.70
2019-05-03T11:56:59.932Z,59.90
2019-05-03T11:59:27.082Z,60.20
2019-05-03T12:02:04.800Z,59.90
2019-05-03T12:04:32.170Z,57.10
2019-05-03T12:06:59.314Z,59.40
2019-05-03T12:09:26.569Z,59.90
2019-05-03T12:11:55.468Z,57.00
2019-05-03T12:14:24.407Z,56.50
2019-05-03T12:17:17.166Z,57.60
2019-05-03T12:19:31.193Z,55.60
2019-05-03T12:21:56.951Z,56.00
2019-05-03T12:24:26.658Z,53.40
2019-05-03T12:26:55.662Z,53.90
2019-05-03T12:29:24.582Z,52.00
2019-05-03T12:31:52.158Z,53.10
2019-05-03T12:34:19.304Z,50.80
2019-05-03T12:36:46.541Z,54.10
2019-05-03T12:39:24.378Z,51.70
2019-05-03T12:41:42.899Z,50.30
2019-05-03T12:44:10.067Z,50.50
2019-05-03T12:46:37.196Z,51.60
2019-05-03T12:49:05.278Z,50.60
2019-05-03T12:51:34.536Z,50.80
2019-05-03T12:54:01.800Z,49.20
2019-05-03T12:56:32.563Z,49.60
2019-05-03T12:59:06.788Z,53.00
2019-05-03T13:01:46.333Z,51.10
2019-05-03T13:04:17.498Z,51.90
2019-05-03T13:06:50.328Z,51.90
2019-05-03T13:09:17.702Z,50.40
2019-05-03T13:11:55.287Z,49.70
2019-05-03T13:14:15.940Z,48.20
2019-05-03T13:16:44.515Z,48.00
2019-05-03T13:19:12.243Z,47.60
2019-05-03T13:21:39.410Z,50.60
2019-05-03T13:24:06.657Z,48.80
2019-05-03T13:26:35.036Z,50.40
2019-05-03T13:29:02.789Z,49.30
2019-05-03T13:31:29.939Z,48.10
2019-05-03T13:33:57.191Z,48.90
2019-05-03T13:36:25.261Z,51.60
2019-05-03T13:38:54.535Z,49.60
2019-05-03T13:41:21.698Z,48.30
2019-05-03T13:43:49.057Z,48.90
2019-05-03T13:46:16.298Z,45.60
2019-05-03T13:48:46.625Z,46.50
2019-05-03T13:51:14.723Z,49.00
2019-05-03T13:53:41.893Z,48.10
2019-05-03T13:56:09.162Z,48.10
2019-05-03T13:58:36.427Z,49.00
2019-05-03T14:01:05.574Z,48.60
2019-05-03T14:03:35.088Z,50.20
2019-05-03T14:06:07.634Z,49.70
2019-05-03T14:08:31.826Z,49.30
2019-05-03T14:10:59.283Z,51.10
2019-05-03T14:13:26.530Z,49.40
2019-05-03T14:15:54.781Z,49.80
2019-05-03T14:18:22.086Z,46.90
2019-05-03T14:21:11.854Z,48.90
2019-05-03T14:23:57.564Z,47.80
2019-05-03T14:26:24.836Z,50.70
2019-05-03T14:28:52.073Z,50.20
2019-05-03T14:31:19.222Z,47.70
2019-05-03T14:33:46.388Z,47.00
2019-05-03T14:36:15.919Z,48.50
2019-05-03T14:38:42.626Z,50.20
2019-05-03T14:41:10.004Z,49.20
2019-05-03T14:43:37.269Z,49.00
2019-05-03T14:46:29.199Z,50.70
2019-05-03T14:48:45.796Z,50.90
2019-05-03T14:51:14.727Z,50.30
2019-05-03T14:53:42.312Z,51.70
2019-05-03T14:56:18.370Z,51.20
2019-05-03T14:59:07.964Z,49.00
2019-05-03T15:01:44.087Z,51.50
2019-05-03T15:04:11.419Z,49.40
2019-05-03T15:06:38.661Z,50.60
2019-05-03T15:09:06.916Z,50.90
2019-05-03T15:11:34.597Z,51.40
2019-05-03T15:14:01.979Z,49.00
2019-05-03T15:16:29.346Z,50.50
2019-05-03T15:18:56.609Z,49.30
2019-05-03T15:21:25.162Z,49.80
2019-05-03T15:23:52.419Z,50.90
2019-05-03T15:26:19.699Z,50.30
2019-05-03T15:28:46.826Z,51.20
2019-05-03T15:31:14.078Z,51.20
2019-05-03T15:33:41.351Z,50.70
2019-05-03T15:36:08.891Z,50.20
2019-05-03T15:38:36.260Z,51.80
2019-05-03T15:41:05.430Z,52.40
2019-05-03T15:43:42.742Z,51.40
2019-05-03T15:46:29.536Z,50.50
2019-05-03T15:48:58.551Z,50.60
2019-05-03T15:51:25.851Z,51.60
2019-05-03T15:53:54.980Z,51.80
2019-05-03T15:56:22.196Z,51.50
2019-05-03T15:58:49.457Z,51.30
2019-05-03T16:01:16.623Z,51.60
2019-05-03T16:03:44.869Z,53.10
2019-05-03T16:06:12.318Z,52.90
2019-05-03T16:08:39.684Z,52.90
2019-05-03T16:11:06.938Z,52.90
2019-05-03T16:13:38.155Z,54.00
2019-05-03T16:16:05.108Z,53.40
2019-05-03T16:18:32.388Z,53.80
2019-05-03T16:20:59.740Z,52.90
2019-05-03T16:23:27.123Z,53.00
2019-05-03T16:25:54.615Z,52.40
2019-05-03T16:28:42.143Z,53.20
2019-05-03T16:31:15.386Z,53.30
2019-05-03T16:33:42.574Z,54.00
2019-05-03T16:36:09.854Z,54.30
2019-05-03T16:38:37.249Z,55.40
2019-05-03T16:41:05.178Z,53.50
2019-05-03T16:43:32.446Z,55.00
2019-05-03T16:45:59.612Z,54.60
2019-05-03T16:48:26.981Z,54.10
2019-05-03T16:50:54.453Z,55.10
2019-05-03T16:53:21.767Z,55.60
2019-05-03T16:55:48.984Z,54.50
2019-05-03T16:58:16.999Z,54.90
2019-05-03T17:00:44.828Z,55.40
2019-05-03T17:03:12.387Z,55.00
2019-05-03T17:06:17.261Z,55.40
2019-05-03T17:09:10.050Z,55.60
2019-05-03T17:11:37.290Z,55.10
2019-05-03T17:14:05.076Z,55.30
2019-05-03T17:16:34.535Z,55.30
2019-05-03T17:19:01.939Z,55.40
2019-05-03T17:21:29.191Z,55.70
2019-05-03T17:23:56.464Z,56.00
2019-05-03T17:26:24.908Z,56.50
2019-05-03T17:28:52.239Z,56.70
2019-05-03T17:31:19.642Z,56.30
2019-05-03T17:33:53.552Z,56.50
2019-05-03T17:36:16.076Z,56.80
2019-05-03T17:38:44.348Z,57.30
2019-05-03T17:41:35.311Z,57.80
2019-05-03T17:44:06.176Z,57.30
2019-05-03T17:46:34.740Z,57.90
2019-05-03T17:49:02.184Z,57.70
2019-05-03T17:51:45.593Z,58.20
2019-05-03T17:54:33.393Z,58.60
2019-05-03T17:57:20.436Z,58.50
2019-05-03T17:59:52.338Z,58.90
2019-05-03T18:02:29.203Z,59.40
2019-05-03T18:05:16.103Z,59.20
2019-05-03T18:08:06.121Z,60.10
2019-05-03T18:10:34.702Z,59.80
2019-05-03T18:13:02.091Z,60.60
2019-05-03T18:15:29.230Z,61.00
2019-05-03T18:17:56.478Z,60.80
2019-05-03T18:20:25.452Z,61.10
2019-05-03T18:22:54.717Z,61.90
2019-05-03T18:25:22.054Z,61.70
2019-05-03T18:27:49.311Z,62.20
2019-05-03T18:30:16.587Z,62.00
2019-05-03T18:32:45.258Z,63.10
2019-05-03T18:35:12.607Z,63.20
2019-05-03T18:37:39.890Z,63.80
2019-05-03T18:40:08.358Z,63.60
2019-05-03T18:42:41.476Z,64.10
2019-05-03T18:45:15.555Z,64.60
2019-05-03T18:47:42.806Z,65.00
2019-05-03T18:50:10.901Z,65.60
2019-05-03T18:52:38.187Z,66.20
2019-05-03T18:55:05.669Z,67.20
2019-05-03T18:57:32.927Z,67.80
2019-05-03T19:00:00.093Z,67.50
2019-05-03T19:02:27.271Z,68.00
2019-05-03T19:04:54.966Z,68.10
2019-05-03T19:07:41.206Z,68.00
2019-05-03T19:10:35.437Z,68.50
2019-05-03T19:13:26.472Z,69.40
2019-05-03T19:15:55.044Z,70.40
2019-05-03T19:18:40.595Z,71.30
2019-05-03T19:21:07.973Z,72.00
2019-05-03T19:23:35.608Z,73.30
2019-05-03T19:26:05.401Z,73.70
2019-05-03T19:28:32.486Z,74.30
2019-05-03T19:30:59.979Z,74.00
2019-05-03T19:33:27.224Z,74.10
2019-05-03T19:35:55.059Z,74.20
2019-05-03T19:38:24.500Z,74.80
2019-05-03T19:40:51.601Z,75.80
2019-05-03T19:43:19.035Z,75.50
2019-05-03T19:45:46.294Z,75.80
2019-05-03T19:48:14.757Z,76.50
2019-05-03T19:50:44.545Z,76.90
2019-05-03T19:53:46.620Z,77.30
2019-05-03T19:56:14.769Z,77.20
2019-05-03T19:58:42.160Z,78.90
2019-05-03T20:01:31.661Z,79.30
2019-05-03T20:04:05.972Z,80.50
2019-05-03T20:06:41.555Z,81.20
2019-05-03T20:09:12.644Z,79.70
2019-05-03T20:11:39.939Z,81.90
2019-05-03T20:14:07.188Z,82.20
2019-05-03T20:16:34.799Z,82.70
2019-05-03T20:19:15.336Z,82.10
2019-05-03T20:21:31.425Z,81.80
2019-05-03T20:23:58.691Z,83.60
2019-05-03T20:26:26.033Z,82.90
2019-05-03T20:28:55.147Z,83.60
2019-05-03T20:31:22.357Z,83.90
2019-05-03T20:33:49.910Z,84.70
2019-05-03T20:36:17.305Z,84.30
2019-05-03T20:38:44.676Z,84.70
2019-05-03T20:41:12.062Z,85.60
2019-05-03T20:43:50.190Z,86.30
2019-05-03T20:46:25.460Z,85.90
2019-05-03T20:48:55.665Z,86.00
2019-05-03T20:51:22.905Z,88.40
2019-05-03T20:53:50.176Z,87.20
2019-05-03T20:56:17.351Z,88.00
2019-05-03T20:58:44.787Z,89.50
2019-05-03T21:01:12.310Z,90.10
2019-05-03T21:03:39.496Z,90.00
2019-05-03T21:06:06.872Z,90.40
2019-05-03T21:08:34.635Z,90.50
2019-05-03T21:11:02.211Z,90.10
2019-05-03T21:13:41.763Z,90.90
2019-05-03T21:16:18.838Z,90.30
2019-05-03T21:18:52.243Z,92.40
2019-05-03T21:21:41.448Z,93.00
2019-05-03T21:24:17.089Z,92.70
2019-05-03T21:26:45.138Z,93.40
2019-05-03T21:29:12.330Z,93.00
2019-05-03T21:31:39.805Z,94.40
2019-05-03T21:34:07.066Z,93.60
2019-05-03T21:36:34.939Z,94.10
2019-05-03T21:39:02.666Z,95.10
2019-05-03T21:41:29.818Z,96.40
2019-05-03T21:43:56.991Z,96.00
2019-05-03T21:46:30.646Z,96.60
2019-05-03T21:49:04.462Z,97.10
2019-05-03T21:51:31.923Z,97.00
2019-05-03T21:53:59.066Z,96.30
2019-05-03T21:56:32.084Z,97.50
2019-05-03T21:58:59.236Z,97.40
2019-05-03T22:01:26.894Z,99.00
2019-05-03T22:03:54.301Z,99.90
2019-05-03T22:06:21.575Z,99.70
2019-05-03T22:08:48.833Z,99.90
2019-05-03T22:11:16.209Z,99.90
2019-05-03T22:13:45.538Z,99.90
2019-05-03T22:16:16.584Z,99.90
2019-05-03T22:18:45.461Z,99.90
2019-05-03T22:21:28.389Z,99.90
2019-05-03T22:24:15.197Z,99.90
2019-05-03T22:27:11.078Z,99.90
2019-05-03T22:29:38.323Z,99.90
2019-05-03T22:32:05.682Z,99.90
2019-05-03T22:34:34.824Z,99.90
2019-05-03T22:37:02.348Z,99.90
2019-05-03T22:39:29.491Z,99.90
2019-05-03T22:41:56.930Z,99.90
2019-05-03T22:44:25.304Z,99.90
2019-05-03T22:46:54.968Z,99.90
2019-05-03T22:49:22.021Z,99.90
2019-05-03T22:51:49.502Z,99.90
2019-05-03T22:54:16.772Z,99.90
2019-05-03T22:56:44.770Z,99.90
2019-05-03T22:59:14.506Z,99.90
2019-05-03T23:01:41.708Z,99.90
2019-05-03T23:04:08.985Z,99.90
2019-05-03T23:06:36.128Z,99.90
2019-05-03T23:09:05.637Z,99.90
2019-05-03T23:11:35.200Z,99.90
2019-05-03T23:14:04.655Z,99.90
2019-05-03T23:16:32.809Z,99.90
2019-05-03T23:19:00.600Z,99.90
2019-05-03T23:21:33.089Z,99.90
2019-05-03T23:24:00.280Z,99.90
2019-05-03T23:26:27.532Z,99.90
2019-05-03T23:28:55.141Z,99.90
2019-05-03T23:31:22.338Z,99.90
2019-05-03T23:33:49.595Z,99.90
2019-05-03T23:36:16.735Z,99.90
2019-05-03T23:38:45.250Z,99.90
2019-05-03T23:41:12.770Z,99.90
2019-05-03T23:43:39.939Z,99.90
2019-05-03T23:46:08.098Z,99.90
2019-05-03T23:48:35.347Z,99.90
2019-05-03T23:51:04.568Z,99.90
2019-05-03T23:53:31.883Z,99.90
2019-05-03T23:56:09.024Z,99.90
2019-05-03T23:58:36.177Z,99.90
